Union Star, Kentucky
Current Conditions -  °F | °C
As of 11:58 PM on Thursday 30 Oct 2014 (Local Time) from KFTK Reporting Station
Scattered Clouds Scattered Clouds  
Wind Chill: 44°   Ceiling: Unl
Heat Index: 44°   Visibility: 10mi
Dew Point: 41°   Wind: 3mph
Humidity: 88%   Direction: 360°N
Pressure: 30.03"   Gusts: NA
Location:  37.94°N, 86.45°W
Report Text: KFTK 310458Z AUTO 36003KT 10SM FEW090 SCT110 07/05 A3003 RMK AO2 SLP174 T00690051 401420005
Loading
Personal Weather Stations






























Interactive Weather Map
Tropical Storm Tracking
New forecast layout! Learn more

10-Day Weather Forecast

Advertisements
Track Severe Weather on mobile